Chiloquin, OR (97604)

10:55 PM PDT del 29 Settembre 2014 (GMT -0700)
RAWS CHILOQUIN OR US | Change Station
CLOSE
Current Station
Stazione meteo personale
Location: Sprague River, OR
Altitudine: 4419 ft
Stazioni meteo nelle vicinanze
Avvisi attivi: Freeze Watch

Alt. 4419 ft 42.58 °N, 121.89 °W | Updated 59 minutes ago

Parzialmente nuvoloso
Parzialmente nuvoloso
51 °F
Sembra 51 °F
N
7
Vento Variabile Vento da ONO
Gusts 11.0 mph

Oggi
Massima -- | Minima -- °F
--% Possibilità di precip.
Ieri
Massima -- | Minima -- °F
Precip. -- in
7:02 AM 6:52 PM
Luna crescente, 33% visible
Pressione 29.96 in
Visibilità 10.0 miglia
Nuvole Sereno
Punto di rugiada 46 °F
Umidità 83%
Piovosità 0.00 in
Spessore del manto nevoso 0 in , 0 in , 0 in
Raggi UV 0 fuori da 12
Polline 3.50 fuori da 12
Qualità dell'aria Non disponibile.
Flu Activity Non disponibile.
METAR KLMT 300453Z 28009KT 10SM CLR 13/08 A3003 RMK AO2 SLP145 T01280078

More Conditions Fewer Conditions

Pressione 29.96 in
Visibilità 10.0 miglia
Nuvole Sereno
Punto di rugiada 46 °F
Umidità 83%
Piovosità 0.00 in
Spessore del manto nevoso 0 in , 0 in , 0 in
Raggi UV 0 fuori da 12
Polline 3.50 fuori da 12
Qualità dell'aria Non disponibile.
Flu Activity Non disponibile.
METAR KLMT 300453Z 28009KT 10SM CLR 13/08 A3003 RMK AO2 SLP145 T01280078

More Conditions Fewer Conditions

10-Day Weather Forecast

Almanac

Astronomia

Sep. 29, 2014 Alba Tramonto
Ora attuale 07:02 PDT 18:52 PDT
Crepuscolo civile 06:34 PDT 19:20 PDT
Crepuscolo nautico 06:01 PDT 19:52 PDT
Crepuscolo astronomico 05:28 PDT 20:25 PDT
Luna 12:25 PDT (9/29) 22:25 PDT (9/29)
Estensione della luce visibile 12h 45m
Lunghezza del giorno
11h 49m
Tomorrow will be 2m 52s shorter.
Luna crescente, 33% of the Moon is Illuminated
Set 30
Luna crescente
Ott 1
Primo quarto
Ott 8
Luna piena
Ott 15
Ultimo quarto
Ott 23
Nuovo

Minime e massime di ieri

State Highs State Lows

Community

WunderPhotos

Upload Photos

1,757,577 foto caricate!

Nearby

Profondità neve

Stazione Profondità Altitudine
Bigelow Camp 0 in 5120 ft
Strawberry 0 in 5760 ft
Peavine Ridge 0 in 3500 ft
Bowman Springs 0 in 4580 ft
Greenpoint 1 in 3200 ft

Attività sismica

Città  Distanza Mag. Data & Ora
Non sono state riportate attività sismiche nelle vicinanze.
Minimo Magnitudo Mostrato è 2.5.

Temperature delle acque costiere

Località Temperatura
Nessun dato dalle stazioni

Stazioni meteo nelle vicinanze